createdAt,value
2022-08-18T00:00:30.448Z,13.98
2022-08-18T00:03:15.830Z,13.40
2022-08-18T00:05:50.632Z,13.55
2022-08-18T00:08:18.346Z,14.18
2022-08-18T00:10:45.184Z,15.65
2022-08-18T00:13:11.929Z,13.85
2022-08-18T00:15:43.981Z,13.35
2022-08-18T00:18:16.682Z,13.02
2022-08-18T00:20:43.421Z,13.80
2022-08-18T00:23:10.183Z,15.43
2022-08-18T00:25:37.793Z,14.55
2022-08-18T00:28:05.385Z,13.57
2022-08-18T00:30:32.839Z,15.45
2022-08-18T00:33:01.283Z,13.95
2022-08-18T00:35:38.773Z,14.20
2022-08-18T00:38:07.917Z,14.23
2022-08-18T00:40:41.117Z,15.00
2022-08-18T00:43:13.524Z,15.50
2022-08-18T00:45:42.789Z,15.60
2022-08-18T00:48:12.702Z,12.98
2022-08-18T00:50:49.652Z,14.10
2022-08-18T00:53:47.952Z,14.45
2022-08-18T00:56:28.162Z,13.90
2022-08-18T00:59:00.100Z,13.20
2022-08-18T01:01:30.893Z,12.80
2022-08-18T01:04:05.683Z,11.73
2022-08-18T01:06:32.455Z,13.23
2022-08-18T01:08:59.493Z,13.40
2022-08-18T01:11:26.485Z,12.77
2022-08-18T01:13:54.023Z,12.85
2022-08-18T01:16:39.397Z,10.85
2022-08-18T01:19:39.229Z,10.38
2022-08-18T01:22:15.324Z,10.43
2022-08-18T01:25:00.460Z,10.98
2022-08-18T01:27:27.283Z,12.18
2022-08-18T01:29:54.482Z,14.57
2022-08-18T01:32:23.463Z,12.85
2022-08-18T01:34:52.002Z,13.23
2022-08-18T01:37:21.453Z,11.68
2022-08-18T01:41:17.592Z,13.70
2022-08-18T01:42:36.863Z,11.85
2022-08-18T01:45:06.164Z,11.45
2022-08-18T01:47:48.128Z,10.80
2022-08-18T01:50:16.192Z,10.02
2022-08-18T01:52:43.022Z,10.38
2022-08-18T01:55:10.061Z,10.88
2022-08-18T01:57:43.223Z,10.13
2022-08-18T02:00:12.573Z,11.50
2022-08-18T02:02:40.030Z,9.63
2022-08-18T02:05:13.565Z,10.65
2022-08-18T02:07:40.405Z,10.35
2022-08-18T02:10:12.171Z,10.15
2022-08-18T02:12:42.113Z,11.52
2022-08-18T02:15:09.946Z,9.73
2022-08-18T02:17:38.822Z,10.98
2022-08-18T02:20:07.480Z,12.05
2022-08-18T02:22:34.980Z,10.45
2022-08-18T02:25:01.759Z,9.90
2022-08-18T02:27:29.386Z,10.35
2022-08-18T02:30:00.256Z,9.73
2022-08-18T02:32:27.293Z,10.15
2022-08-18T02:34:56.361Z,9.40
2022-08-18T02:37:23.142Z,9.75
2022-08-18T02:39:50.197Z,9.63
2022-08-18T02:42:17.240Z,9.93
2022-08-18T02:44:44.383Z,11.63
2022-08-18T02:47:11.293Z,11.35
2022-08-18T02:49:37.996Z,11.38
2022-08-18T02:52:07.429Z,12.25
2022-08-18T02:54:35.312Z,13.00
2022-08-18T02:57:08.169Z,14.35
2022-08-18T02:59:34.848Z,12.18
2022-08-18T03:02:01.558Z,12.27
2022-08-18T03:04:30.799Z,12.00
2022-08-18T03:07:02.457Z,12.60
2022-08-18T03:09:30.127Z,12.70
2022-08-18T03:11:57.271Z,13.05
2022-08-18T03:14:25.526Z,12.82
2022-08-18T03:16:54.590Z,13.07
2022-08-18T03:19:28.474Z,13.55
2022-08-18T03:21:59.457Z,13.27
2022-08-18T03:24:29.869Z,25.55
2022-08-18T03:26:57.376Z,14.25
2022-08-18T03:29:30.934Z,15.27
2022-08-18T03:31:59.146Z,15.77
2022-08-18T03:34:26.134Z,15.50
2022-08-18T03:36:53.475Z,16.25
2022-08-18T03:39:23.726Z,17.08
2022-08-18T03:41:58.799Z,15.32
2022-08-18T03:44:33.904Z,15.32
2022-08-18T03:47:08.063Z,14.90
2022-08-18T03:49:36.742Z,15.98
2022-08-18T03:52:04.212Z,15.23
2022-08-18T03:54:34.253Z,14.98
2022-08-18T03:57:01.907Z,14.65
2022-08-18T03:59:32.066Z,18.02
2022-08-18T04:01:59.155Z,14.77
2022-08-18T04:04:27.954Z,16.52
2022-08-18T04:07:09.372Z,15.05
2022-08-18T04:09:37.522Z,14.40
2022-08-18T04:12:16.780Z,15.85
2022-08-18T04:14:48.401Z,16.45
2022-08-18T04:17:20.445Z,13.98
2022-08-18T04:19:47.178Z,14.00
2022-08-18T04:22:17.125Z,13.57
2022-08-18T04:24:45.367Z,14.57
2022-08-18T04:27:12.264Z,13.50
2022-08-18T04:29:38.933Z,13.68
2022-08-18T04:32:05.887Z,14.02
2022-08-18T04:34:34.211Z,14.70
2022-08-18T04:37:01.522Z,14.25
2022-08-18T04:39:28.916Z,13.02
2022-08-18T04:41:56.363Z,15.48
2022-08-18T04:44:23.243Z,15.00
2022-08-18T04:46:52.311Z,12.35
2022-08-18T04:49:21.330Z,13.30
2022-08-18T04:52:34.312Z,12.93
2022-08-18T04:54:57.334Z,12.48
2022-08-18T04:57:24.262Z,14.60
2022-08-18T04:59:52.546Z,13.82
2022-08-18T05:02:21.214Z,13.73
2022-08-18T05:04:48.288Z,14.45
2022-08-18T05:07:17.858Z,12.65
2022-08-18T05:09:44.793Z,12.55
2022-08-18T05:12:14.379Z,13.02
2022-08-18T05:14:41.913Z,13.43
2022-08-18T05:17:08.982Z,13.27
2022-08-18T05:19:35.870Z,14.25
2022-08-18T05:22:09.242Z,15.00
2022-08-18T05:24:41.231Z,14.10
2022-08-18T05:27:07.969Z,13.75
2022-08-18T05:29:45.782Z,13.90
2022-08-18T05:32:38.293Z,13.80
2022-08-18T05:35:18.901Z,13.55
2022-08-18T05:37:57.325Z,16.48
2022-08-18T05:40:26.137Z,55.47
2022-08-18T05:42:59.121Z,14.60
2022-08-18T05:45:27.469Z,11.98
2022-08-18T05:48:02.476Z,12.70
2022-08-18T05:50:32.667Z,13.38
2022-08-18T05:53:04.048Z,11.80
2022-08-18T05:56:05.874Z,14.65
2022-08-18T05:58:44.603Z,12.93
2022-08-18T06:01:24.195Z,13.18
2022-08-18T06:04:01.901Z,12.20
2022-08-18T06:06:30.983Z,12.82
2022-08-18T06:09:07.994Z,12.35
2022-08-18T06:11:34.749Z,13.00
2022-08-18T06:14:03.605Z,13.73
2022-08-18T06:17:09.053Z,13.88
2022-08-18T06:19:50.678Z,14.02
2022-08-18T06:22:36.479Z,12.60
2022-08-18T06:25:57.816Z,13.18
2022-08-18T06:28:39.510Z,12.25
2022-08-18T06:31:19.042Z,14.23
2022-08-18T06:34:01.288Z,15.73
2022-08-18T06:36:46.724Z,13.32
2022-08-18T06:39:31.837Z,12.38
2022-08-18T06:41:58.816Z,13.00
2022-08-18T06:44:34.634Z,17.38
2022-08-18T06:47:23.959Z,13.90
2022-08-18T06:49:55.597Z,13.13
2022-08-18T06:52:22.206Z,13.15
2022-08-18T06:54:51.597Z,12.82
2022-08-18T06:57:28.776Z,14.98
2022-08-18T06:59:58.639Z,13.30
2022-08-18T07:02:35.924Z,13.43
2022-08-18T07:05:15.265Z,13.73
2022-08-18T07:07:43.401Z,13.95
2022-08-18T07:10:16.302Z,14.25
2022-08-18T07:12:46.088Z,13.25
2022-08-18T07:15:13.194Z,13.77
2022-08-18T07:17:42.268Z,13.50
2022-08-18T07:20:23.732Z,13.65
2022-08-18T07:22:59.836Z,12.82
2022-08-18T07:25:40.649Z,12.82
2022-08-18T07:28:07.938Z,12.13
2022-08-18T07:30:37.746Z,12.65
2022-08-18T07:33:16.918Z,12.77
2022-08-18T07:35:49.556Z,11.43
2022-08-18T07:38:43.047Z,12.30
2022-08-18T07:41:21.667Z,12.40
2022-08-18T07:44:08.713Z,12.23
2022-08-18T07:47:09.497Z,15.63
2022-08-18T07:49:46.032Z,11.38
2022-08-18T07:53:17.148Z,12.60
2022-08-18T07:55:49.862Z,11.50
2022-08-18T07:58:22.430Z,13.07
2022-08-18T08:00:59.350Z,12.52
2022-08-18T08:03:48.256Z,12.30
2022-08-18T08:06:37.579Z,12.00
2022-08-18T08:09:19.060Z,12.18
2022-08-18T08:11:56.993Z,10.85
2022-08-18T08:14:32.657Z,10.50
2022-08-18T08:17:48.701Z,14.68
2022-08-18T08:20:36.861Z,11.00
2022-08-18T08:23:17.366Z,10.00
2022-08-18T08:26:29.465Z,9.20
2022-08-18T08:29:24.255Z,8.68
2022-08-18T08:31:51.822Z,8.68
2022-08-18T08:34:39.798Z,8.35
2022-08-18T08:37:17.519Z,8.30
2022-08-18T08:39:51.418Z,9.15
2022-08-18T08:42:31.875Z,9.15
2022-08-18T08:45:06.657Z,8.50
2022-08-18T08:47:58.505Z,8.85
2022-08-18T08:50:36.660Z,9.07
2022-08-18T08:53:27.850Z,8.27
2022-08-18T08:56:02.647Z,8.35
2022-08-18T08:58:51.603Z,9.40
2022-08-18T09:01:36.734Z,8.38
2022-08-18T09:04:31.438Z,9.85
2022-08-18T09:07:16.069Z,7.85
2022-08-18T09:09:56.750Z,9.55
2022-08-18T09:12:39.747Z,9.65
2022-08-18T09:15:22.423Z,8.55
2022-08-18T09:18:00.625Z,9.07
2022-08-18T09:20:40.548Z,7.95
2022-08-18T09:23:18.508Z,8.65
2022-08-18T09:26:03.848Z,8.82
2022-08-18T09:28:30.928Z,8.18
2022-08-18T09:31:08.597Z,8.68
2022-08-18T09:33:40.887Z,8.20
2022-08-18T09:36:33.172Z,8.85
2022-08-18T09:39:38.864Z,10.18
2022-08-18T09:42:15.897Z,8.75
2022-08-18T09:44:48.520Z,8.77
2022-08-18T09:47:21.840Z,10.80
2022-08-18T09:49:58.349Z,7.43
2022-08-18T09:52:37.285Z,8.52
2022-08-18T09:55:16.891Z,7.80
2022-08-18T09:57:44.881Z,9.77
2022-08-18T10:00:13.491Z,8.10
2022-08-18T10:02:48.590Z,7.28
2022-08-18T10:05:15.716Z,7.63
2022-08-18T10:07:56.350Z,8.32
2022-08-18T10:10:59.227Z,7.63
2022-08-18T10:13:49.157Z,8.65
2022-08-18T10:16:57.554Z,7.22
2022-08-18T10:19:39.397Z,7.25
2022-08-18T10:22:09.905Z,7.40
2022-08-18T10:24:53.345Z,7.95
2022-08-18T10:27:34.980Z,10.30
2022-08-18T10:30:05.597Z,8.80
2022-08-18T10:32:44.313Z,8.02
2022-08-18T10:35:34.387Z,6.70
2022-08-18T10:38:25.599Z,6.05
2022-08-18T10:41:10.203Z,6.50
2022-08-18T10:43:57.629Z,5.93
2022-08-18T10:46:34.967Z,6.38
2022-08-18T10:49:13.454Z,6.38
2022-08-18T10:52:19.989Z,6.70
2022-08-18T10:54:56.733Z,7.57
2022-08-18T10:57:23.965Z,9.20
2022-08-18T11:00:13.831Z,14.90
2022-08-18T11:03:01.904Z,6.20
2022-08-18T11:05:31.859Z,6.03
2022-08-18T11:08:16.130Z,7.57
2022-08-18T11:11:27.572Z,6.85
2022-08-18T11:14:20.488Z,6.85
2022-08-18T11:20:17.901Z,6.57
2022-08-18T11:22:57.285Z,6.93
2022-08-18T11:25:29.019Z,7.13
2022-08-18T11:27:57.024Z,7.22
2022-08-18T11:30:32.918Z,8.82
2022-08-18T11:33:03.451Z,8.85
2022-08-18T11:36:20.092Z,12.00
2022-08-18T11:39:35.906Z,7.90
2022-08-18T11:45:10.092Z,5.97
2022-08-18T11:48:21.052Z,5.57
2022-08-18T11:51:12.947Z,5.22
2022-08-18T11:54:12.817Z,5.53
2022-08-18T11:56:39.698Z,6.18
2022-08-18T11:59:54.632Z,5.57
2022-08-18T12:02:25.701Z,5.55
2022-08-18T12:05:03.298Z,5.60
2022-08-18T12:07:35.362Z,5.88
2022-08-18T12:10:26.041Z,5.55
2022-08-18T12:12:55.685Z,15.63
2022-08-18T12:15:43.779Z,6.07
2022-08-18T12:18:26.636Z,5.80
2022-08-18T12:20:58.534Z,5.78
2022-08-18T12:23:25.696Z,6.38
2022-08-18T12:25:52.693Z,7.05
2022-08-18T12:28:22.194Z,8.77
2022-08-18T12:30:57.023Z,6.55
2022-08-18T12:33:25.601Z,6.13
2022-08-18T12:36:01.620Z,6.03
2022-08-18T12:38:32.921Z,6.00
2022-08-18T12:41:03.624Z,5.95
2022-08-18T12:43:32.295Z,5.90
2022-08-18T12:46:00.249Z,5.38
2022-08-18T12:48:30.375Z,6.28
2022-08-18T12:50:59.941Z,9.38
2022-08-18T12:53:30.015Z,10.90
2022-08-18T12:56:19.716Z,5.75
2022-08-18T12:58:47.077Z,7.95
2022-08-18T13:01:13.893Z,6.15
2022-08-18T13:03:45.527Z,6.43
2022-08-18T13:06:33.791Z,5.50
2022-08-18T13:09:00.814Z,5.50
2022-08-18T13:11:28.004Z,6.05
2022-08-18T13:13:57.202Z,5.40
2022-08-18T13:16:38.509Z,5.43
2022-08-18T13:19:06.275Z,5.70
2022-08-18T13:21:39.024Z,4.65
2022-08-18T13:24:09.418Z,5.88
2022-08-18T13:26:41.574Z,7.22
2022-08-18T13:29:10.199Z,6.22
2022-08-18T13:31:38.245Z,6.15
2022-08-18T13:34:07.699Z,5.45
2022-08-18T13:36:46.109Z,4.80
2022-08-18T13:39:33.743Z,5.47
2022-08-18T13:42:26.236Z,4.80
2022-08-18T13:44:53.300Z,4.38
2022-08-18T13:47:20.841Z,4.95
2022-08-18T13:49:57.866Z,5.75
2022-08-18T13:52:34.264Z,4.47
2022-08-18T13:55:08.244Z,4.85
2022-08-18T13:57:36.352Z,4.50
2022-08-18T14:00:07.001Z,4.53
2022-08-18T14:02:45.418Z,4.35
2022-08-18T14:05:12.885Z,4.95
2022-08-18T14:07:40.370Z,6.28
2022-08-18T14:10:13.284Z,6.43
2022-08-18T14:12:41.354Z,4.68
2022-08-18T14:15:15.269Z,5.85
2022-08-18T14:17:45.236Z,4.70
2022-08-18T14:20:31.813Z,5.18
2022-08-18T14:23:25.149Z,4.30
2022-08-18T14:26:17.404Z,5.75
2022-08-18T14:28:59.845Z,4.53
2022-08-18T14:31:35.776Z,4.72
2022-08-18T14:34:04.407Z,4.22
2022-08-18T14:36:31.452Z,6.47
2022-08-18T14:39:00.293Z,4.80
2022-08-18T14:41:27.864Z,5.50
2022-08-18T14:44:13.260Z,5.82
2022-08-18T14:46:42.189Z,5.10
2022-08-18T14:49:28.494Z,5.00
2022-08-18T14:51:58.009Z,4.40
2022-08-18T14:54:28.570Z,10.68
2022-08-18T14:56:57.586Z,13.48
2022-08-18T14:59:25.526Z,6.72
2022-08-18T15:01:53.474Z,4.82
2022-08-18T15:04:21.867Z,5.00
2022-08-18T15:06:56.023Z,4.55
2022-08-18T15:09:23.322Z,5.43
2022-08-18T15:11:51.400Z,4.47
2022-08-18T15:14:21.439Z,4.97
2022-08-18T15:17:00.249Z,4.65
2022-08-18T15:19:59.402Z,6.50
2022-08-18T15:22:32.559Z,4.80
2022-08-18T15:25:17.868Z,6.80
2022-08-18T15:27:48.102Z,7.30
2022-08-18T15:30:21.393Z,4.82
2022-08-18T15:32:49.823Z,4.40
2022-08-18T15:35:17.914Z,4.40
2022-08-18T15:37:51.488Z,5.72
2022-08-18T15:40:35.678Z,5.40
2022-08-18T15:43:09.841Z,7.05
2022-08-18T15:45:56.144Z,4.75
2022-08-18T15:48:26.492Z,5.47
2022-08-18T15:50:53.552Z,4.60
2022-08-18T15:53:29.617Z,5.03
2022-08-18T15:55:57.654Z,5.00
2022-08-18T15:58:26.673Z,4.45
2022-08-18T16:00:53.942Z,4.93
2022-08-18T16:03:21.723Z,5.78
2022-08-18T16:05:54.649Z,5.03
2022-08-18T16:08:24.943Z,6.38
2022-08-18T16:10:52.814Z,5.03
2022-08-18T16:13:20.064Z,5.28
2022-08-18T16:15:48.484Z,5.47
2022-08-18T16:18:17.419Z,9.73
2022-08-18T16:20:46.651Z,6.22
2022-08-18T16:23:14.340Z,6.75
2022-08-18T16:25:42.406Z,6.57
2022-08-18T16:28:10.049Z,5.88
2022-08-18T16:30:36.778Z,5.18
2022-08-18T16:33:06.846Z,7.68
2022-08-18T16:35:35.239Z,9.93
2022-08-18T16:38:08.896Z,6.68
2022-08-18T16:40:53.876Z,6.43
2022-08-18T16:43:38.424Z,4.75
2022-08-18T16:46:10.012Z,6.03
2022-08-18T16:48:37.894Z,6.43
2022-08-18T16:51:04.834Z,7.18
2022-08-18T16:53:39.846Z,5.63
2022-08-18T16:56:12.538Z,5.90
2022-08-18T16:58:58.142Z,7.00
2022-08-18T17:01:48.859Z,6.18
2022-08-18T17:04:22.631Z,8.07
2022-08-18T17:06:51.020Z,5.90
2022-08-18T17:09:19.715Z,6.30
2022-08-18T17:11:48.087Z,6.22
2022-08-18T17:14:20.245Z,7.57
2022-08-18T17:16:48.949Z,6.00
2022-08-18T17:19:15.600Z,6.40
2022-08-18T17:21:42.267Z,6.35
2022-08-18T17:24:11.456Z,7.72
2022-08-18T17:27:01.527Z,6.28
2022-08-18T17:29:40.717Z,9.02
2022-08-18T17:32:15.524Z,6.07
2022-08-18T17:34:51.962Z,6.68
2022-08-18T17:37:21.939Z,6.40
2022-08-18T17:40:00.545Z,5.80
2022-08-18T17:42:31.277Z,5.95
2022-08-18T17:45:04.137Z,6.70
2022-08-18T17:47:54.097Z,7.32
2022-08-18T17:50:57.222Z,6.82
2022-08-18T17:53:25.096Z,6.00
2022-08-18T17:56:17.799Z,8.48
2022-08-18T17:58:48.201Z,6.18
2022-08-18T18:01:15.436Z,5.90
2022-08-18T18:03:44.083Z,7.03
2022-08-18T18:06:32.429Z,6.00
2022-08-18T18:09:00.790Z,5.50
2022-08-18T18:11:37.634Z,6.38
2022-08-18T18:14:26.068Z,5.88
2022-08-18T18:17:15.071Z,6.45
2022-08-18T18:19:43.625Z,6.20
2022-08-18T18:22:19.553Z,6.50
2022-08-18T18:24:56.191Z,6.30
2022-08-18T18:27:47.207Z,6.07
2022-08-18T18:30:28.111Z,7.85
2022-08-18T18:33:02.859Z,6.20
2022-08-18T18:35:38.130Z,5.95
2022-08-18T18:38:35.320Z,6.53
2022-08-18T18:41:10.676Z,11.45
2022-08-18T18:47:36.837Z,7.07
2022-08-18T18:50:09.742Z,7.78
2022-08-18T18:56:10.711Z,7.72
2022-08-18T18:59:03.183Z,6.43
2022-08-18T19:02:01.063Z,6.43
2022-08-18T19:04:39.468Z,7.10
2022-08-18T19:07:21.415Z,8.90
2022-08-18T19:10:00.624Z,12.20
2022-08-18T19:12:33.326Z,11.20
2022-08-18T19:15:14.743Z,10.17
2022-08-18T19:17:49.675Z,8.10
2022-08-18T19:20:23.418Z,7.70
2022-08-18T19:23:15.297Z,7.32
2022-08-18T19:26:00.247Z,6.00
2022-08-18T19:28:38.787Z,6.15
2022-08-18T19:31:31.159Z,6.75
2022-08-18T19:34:29.971Z,7.13
2022-08-18T19:37:27.548Z,7.40
2022-08-18T19:40:01.065Z,9.05
2022-08-18T19:42:44.232Z,8.70
2022-08-18T19:45:47.233Z,8.80
2022-08-18T19:48:28.632Z,8.00
2022-08-18T19:51:05.629Z,9.75
2022-08-18T19:53:44.382Z,8.48
2022-08-18T19:56:41.167Z,7.43
2022-08-18T19:59:22.901Z,6.75
2022-08-18T20:01:52.255Z,7.28
2022-08-18T20:04:32.033Z,7.65
2022-08-18T20:07:19.724Z,9.05
2022-08-18T20:10:15.979Z,11.25
2022-08-18T20:12:57.770Z,10.40
2022-08-18T20:15:27.259Z,11.13
2022-08-18T20:17:53.875Z,10.77
2022-08-18T20:20:23.042Z,11.75
2022-08-18T20:22:56.868Z,9.70
2022-08-18T20:25:23.928Z,11.00
2022-08-18T20:28:20.893Z,10.30
2022-08-18T20:31:04.823Z,9.82
2022-08-18T20:33:38.544Z,9.05
2022-08-18T20:36:28.999Z,8.35
2022-08-18T20:38:59.228Z,8.90
2022-08-18T20:41:29.613Z,8.68
2022-08-18T20:43:59.320Z,9.18
2022-08-18T20:46:37.557Z,12.75
2022-08-18T20:49:45.454Z,12.15
2022-08-18T20:52:29.194Z,11.70
2022-08-18T20:55:15.322Z,12.90
2022-08-18T20:57:44.248Z,11.05
2022-08-18T21:00:27.346Z,10.60
2022-08-18T21:02:58.077Z,9.52
2022-08-18T21:05:34.119Z,10.20
2022-08-18T21:08:16.573Z,11.90
2022-08-18T21:10:56.512Z,9.20
2022-08-18T21:13:41.366Z,8.98
2022-08-18T21:16:38.560Z,9.43
2022-08-18T21:19:18.015Z,10.32
2022-08-18T21:21:49.306Z,9.48
2022-08-18T21:24:26.921Z,10.30
2022-08-18T21:26:59.985Z,9.05
2022-08-18T21:29:36.497Z,9.48
2022-08-18T21:32:27.896Z,8.48
2022-08-18T21:34:54.580Z,7.82
2022-08-18T21:37:21.473Z,7.13
2022-08-18T21:39:59.910Z,8.50
2022-08-18T21:42:40.503Z,11.50
2022-08-18T21:45:16.354Z,9.43
2022-08-18T21:47:50.112Z,10.38
2022-08-18T21:52:57.171Z,8.93
2022-08-18T21:55:30.630Z,9.43
2022-08-18T21:58:02.520Z,10.68
2022-08-18T22:00:31.032Z,9.65
2022-08-18T22:03:18.370Z,10.95
2022-08-18T22:06:23.038Z,9.18
2022-08-18T22:12:00.553Z,7.40
2022-08-18T22:14:54.513Z,12.50
2022-08-18T22:17:32.714Z,8.00
2022-08-18T22:20:38.570Z,7.80
2022-08-18T22:23:33.371Z,7.35
2022-08-18T22:26:15.086Z,7.00
2022-08-18T22:29:17.577Z,7.40
2022-08-18T22:31:47.902Z,7.30
2022-08-18T22:34:17.551Z,7.00
2022-08-18T22:37:05.989Z,8.70
2022-08-18T22:39:37.791Z,9.00
2022-08-18T22:42:06.251Z,10.25
2022-08-18T22:44:33.463Z,10.65
2022-08-18T22:47:00.291Z,9.38
2022-08-18T22:49:26.948Z,9.82
2022-08-18T22:51:55.691Z,9.23
2022-08-18T22:54:23.190Z,10.48
2022-08-18T22:56:53.808Z,9.98
2022-08-18T22:59:25.518Z,9.10
2022-08-18T23:01:54.632Z,9.98
2022-08-18T23:04:23.073Z,8.32
2022-08-18T23:06:53.721Z,9.25
2022-08-18T23:09:31.923Z,7.70
2022-08-18T23:12:05.670Z,8.27
2022-08-18T23:17:05.279Z,8.90
2022-08-18T23:19:32.726Z,10.15
2022-08-18T23:22:00.885Z,9.65
2022-08-18T23:24:28.232Z,9.82
2022-08-18T23:26:55.081Z,9.80
2022-08-18T23:29:22.158Z,9.32
2022-08-18T23:31:50.342Z,9.98
2022-08-18T23:34:18.840Z,10.15
2022-08-18T23:36:51.928Z,9.57
2022-08-18T23:39:18.681Z,10.85
2022-08-18T23:41:45.427Z,9.60
2022-08-18T23:44:14.898Z,9.00
2022-08-18T23:46:43.360Z,9.77
2022-08-18T23:49:14.682Z,10.27
2022-08-18T23:51:45.759Z,9.27
2022-08-18T23:54:19.389Z,10.25
2022-08-18T23:56:47.113Z,9.68
2022-08-18T23:59:15.164Z,9.38
